Time;durP1;ratioP1;P1;durP2;ratioP2;P2;SDS_P1;SDS_P2;PMS_P1;PMS_P2;Temp;Humidity;BMP_temperature;BMP_pressure;BME280_temperature;BME280_humidity;BME280_pressure;Samples;Min_cycle;Max_cycle;Signal;HPM_P1;HPM_P2
2020/12/12 00:00:20;;;;;;;41.40;20.73;;;;;;;0.01;100.00;94171.47;1035903;28;20026;-74
2020/12/12 00:00:50;;;;;;;39.25;20.35;;;;;;;0.02;100.00;94167.91;1035854;28;20029;-73
2020/12/12 00:01:21;;;;;;;37.97;19.98;;;;;;;0.05;100.00;94172.78;1035909;28;20045;-73
2020/12/12 00:01:53;;;;;;;36.85;20.27;;;;;;;0.06;100.00;94168.41;1040033;28;20024;-74
2020/12/12 00:02:23;;;;;;;40.17;21.33;;;;;;;-0.01;100.00;94157.78;1036070;28;20048;-74
2020/12/12 00:02:54;;;;;;;38.25;19.95;;;;;;;0.03;100.00;94163.50;1035866;28;20057;-73
2020/12/12 00:03:25;;;;;;;38.45;19.77;;;;;;;0.00;100.00;94177.69;1036015;28;20057;-74
2020/12/12 00:03:57;;;;;;;37.70;19.58;;;;;;;-0.02;100.00;94171.78;1040159;28;20104;-74
2020/12/12 00:04:28;;;;;;;38.72;20.20;;;;;;;-0.04;100.00;94178.94;1044602;28;20104;-74
2020/12/12 00:05:00;;;;;;;35.42;19.55;;;;;;;0.01;100.00;94173.28;1048942;28;20542;-73
2020/12/12 00:05:31;;;;;;;37.78;19.67;;;;;;;0.01;100.00;94166.25;1040343;28;20053;-74
2020/12/12 00:06:02;;;;;;;41.40;21.35;;;;;;;0.03;100.00;94173.94;1040267;28;20335;-74
2020/12/12 00:06:33;;;;;;;42.40;21.80;;;;;;;-0.02;100.00;94161.34;1036316;28;20060;-74
2020/12/12 00:07:03;;;;;;;39.55;19.83;;;;;;;0.01;100.00;94157.63;1031752;28;20025;-73
2020/12/12 00:07:34;;;;;;;35.85;19.65;;;;;;;0.06;100.00;94171.81;1035991;28;20033;-74
2020/12/12 00:08:05;;;;;;;39.72;20.40;;;;;;;0.02;100.00;94172.28;1040166;28;20084;-74
2020/12/12 00:08:36;;;;;;;42.70;20.95;;;;;;;0.06;100.00;94157.97;1035908;28;20017;-74
2020/12/12 00:09:07;;;;;;;43.20;21.10;;;;;;;0.06;100.00;94152.75;1035722;28;20018;-73
2020/12/12 00:09:38;;;;;;;39.10;21.13;;;;;;;0.07;100.00;94157.81;1036022;28;20097;-74
2020/12/12 00:10:09;;;;;;;39.65;20.58;;;;;;;0.05;100.00;94162.34;1035917;28;20072;-74
2020/12/12 00:10:40;;;;;;;38.03;19.67;;;;;;;0.09;100.00;94158.47;1031849;28;20371;-73
2020/12/12 00:11:10;;;;;;;38.90;21.20;;;;;;;0.09;100.00;94158.47;1039835;28;20048;-73
2020/12/12 00:11:41;;;;;;;35.92;19.67;;;;;;;0.04;100.00;94165.16;1040000;28;20009;-74
2020/12/12 00:12:12;;;;;;;39.45;21.23;;;;;;;0.01;100.00;94155.81;1039997;28;20009;-73
2020/12/12 00:12:42;;;;;;;38.90;20.08;;;;;;;0.16;100.00;94159.47;1035418;28;20047;-73
2020/12/12 00:13:14;;;;;;;39.72;20.63;;;;;;;0.10;100.00;94161.91;1039881;28;20036;-73
2020/12/12 00:13:45;;;;;;;39.38;20.45;;;;;;;0.01;100.00;94161.03;1040010;28;20031;-74
2020/12/12 00:14:16;;;;;;;41.40;20.75;;;;;;;0.05;100.00;94161.53;1035892;28;20086;-74
2020/12/12 00:14:47;;;;;;;37.67;20.08;;;;;;;0.01;100.00;94158.44;1039893;28;20025;-73
2020/12/12 00:15:18;;;;;;;36.97;20.05;;;;;;;-0.05;100.00;94161.69;1031814;28;20480;-73
2020/12/12 00:15:49;;;;;;;44.45;21.42;;;;;;;-0.04;100.00;94158.06;1035978;28;20036;-74
2020/12/12 00:16:20;;;;;;;38.08;20.30;;;;;;;0.03;100.00;94159.09;1035969;28;20192;-74
2020/12/12 00:16:52;;;;;;;37.53;20.48;;;;;;;0.06;100.00;94164.00;1035853;28;20014;-73
2020/12/12 00:17:23;;;;;;;39.75;20.70;;;;;;;0.08;100.00;94161.22;1040021;28;20048;-74
2020/12/12 00:17:54;;;;;;;41.42;21.88;;;;;;;0.06;100.00;94160.56;1044131;28;20017;-74
2020/12/12 00:18:25;;;;;;;37.75;20.25;;;;;;;-0.02;100.00;94151.75;1036015;28;20063;-73
2020/12/12 00:18:56;;;;;;;43.53;22.70;;;;;;;0.09;100.00;94155.06;1044256;28;20013;-73
2020/12/12 00:19:26;;;;;;;41.70;20.77;;;;;;;0.08;100.00;94158.63;1039979;28;20021;-73
2020/12/12 00:19:57;;;;;;;44.47;21.15;;;;;;;0.11;100.00;94156.53;1040265;28;20524;-74
2020/12/12 00:20:29;;;;;;;39.97;20.05;;;;;;;0.06;100.00;94153.56;1031830;28;20022;-74
2020/12/12 00:21:00;;;;;;;43.38;21.27;;;;;;;0.03;100.00;94161.69;1044015;28;20021;-73
2020/12/12 00:21:31;;;;;;;39.70;21.35;;;;;;;0.04;100.00;94165.94;1039982;28;20109;-73
2020/12/12 00:22:01;;;;;;;42.00;20.90;;;;;;;0.01;100.00;94161.03;1035870;28;20010;-73
2020/12/12 00:22:32;;;;;;;38.85;21.80;;;;;;;0.00;100.00;94154.19;1040010;28;20044;-73
2020/12/12 00:23:04;;;;;;;37.55;20.60;;;;;;;-0.26;100.00;94102.88;1035793;28;20022;-73
2020/12/12 00:23:36;;;;;;;37.85;20.52;;;;;;;0.10;100.00;94159.28;1035912;28;20405;-74
2020/12/12 00:24:07;;;;;;;41.65;21.92;;;;;;;0.06;100.00;94148.34;1035935;28;20521;-74
2020/12/12 00:24:37;;;;;;;37.08;19.85;;;;;;;0.03;100.00;94148.66;1031847;28;20022;-74
2020/12/12 00:25:09;;;;;;;40.30;20.55;;;;;;;-0.07;100.00;94140.97;1035860;28;20486;-73
2020/12/12 00:25:40;;;;;;;38.90;20.42;;;;;;;0.05;100.00;94148.50;1035750;28;20112;-73
2020/12/12 00:26:10;;;;;;;35.38;19.83;;;;;;;0.05;100.00;94149.31;1035861;28;20042;-74
2020/12/12 00:26:41;;;;;;;41.10;22.15;;;;;;;0.01;100.00;94136.75;1031862;28;20535;-74
2020/12/12 00:27:12;;;;;;;41.58;20.95;;;;;;;0.04;100.00;94149.50;1031729;28;20466;-73
2020/12/12 00:27:42;;;;;;;38.85;20.63;;;;;;;-0.09;100.00;94135.06;1031946;28;20447;-74
2020/12/12 00:28:14;;;;;;;39.78;20.63;;;;;;;-0.12;100.00;94124.13;1031928;28;20023;-74
2020/12/12 00:28:45;;;;;;;41.22;21.33;;;;;;;0.01;100.00;94150.59;1040139;28;20013;-73
2020/12/12 00:29:16;;;;;;;36.00;20.05;;;;;;;0.03;100.00;94155.66;1040008;28;20389;-74
2020/12/12 00:29:47;;;;;;;40.70;20.67;;;;;;;0.04;100.00;94149.50;1040039;28;20035;-74
2020/12/12 00:30:18;;;;;;;37.70;19.92;;;;;;;0.05;100.00;94146.69;1044116;28;20056;-74
2020/12/12 00:30:49;;;;;;;38.60;20.65;;;;;;;0.03;100.00;94151.25;1043900;28;20025;-73
2020/12/12 00:31:20;;;;;;;45.30;22.45;;;;;;;-0.01;100.00;94142.94;1044038;28;20384;-73
2020/12/12 00:31:59;;;;;;;41.25;21.35;;;;;;;0.04;100.00;94152.91;1036080;28;20096;-74
2020/12/12 00:32:30;;;;;;;43.72;21.80;;;;;;;0.02;100.00;94149.63;1040019;28;20043;-74
2020/12/12 00:33:01;;;;;;;44.83;21.55;;;;;;;-0.06;100.00;94133.94;1031767;28;20023;-73
2020/12/12 00:33:32;;;;;;;38.38;20.17;;;;;;;0.06;100.00;94148.34;1035929;28;20018;-73
2020/12/12 00:34:02;;;;;;;38.78;20.38;;;;;;;0.03;100.00;94153.06;1035809;28;20367;-73
2020/12/12 00:34:33;;;;;;;41.55;20.73;;;;;;;-0.01;100.00;94136.91;1031805;28;20022;-74
2020/12/12 00:35:04;;;;;;;42.95;21.58;;;;;;;-0.04;100.00;94138.00;1035717;28;20017;-73
2020/12/12 00:35:35;;;;;;;42.60;21.92;;;;;;;0.06;100.00;94147.53;1044124;28;20476;-74
2020/12/12 00:36:06;;;;;;;40.40;20.27;;;;;;;0.07;100.00;94146.53;1039933;28;20017;-74
2020/12/12 00:36:39;;;;;;;40.50;21.27;;;;;;;0.05;100.00;94148.50;1044021;28;20020;-74
2020/12/12 00:37:10;;;;;;;39.30;21.75;;;;;;;0.01;100.00;94140.16;1040047;28;20014;-74
2020/12/12 00:37:41;;;;;;;37.08;20.25;;;;;;;0.05;100.00;94146.69;1044181;28;20020;-74
2020/12/12 00:38:12;;;;;;;39.92;21.27;;;;;;;-0.02;100.00;94143.06;1035890;28;20386;-74
2020/12/12 00:38:42;;;;;;;39.70;20.70;;;;;;;-0.08;100.00;94141.91;1039967;28;20127;-73
2020/12/12 00:39:13;;;;;;;38.17;20.20;;;;;;;-0.06;100.00;94145.19;1048119;28;20104;-73
2020/12/12 00:39:45;;;;;;;42.95;21.08;;;;;;;0.01;100.00;94145.38;1035958;28;20020;-74
2020/12/12 00:40:16;;;;;;;40.78;22.23;;;;;;;0.01;100.00;94150.59;1035962;28;20092;-74
2020/12/12 00:40:56;;;;;;;44.90;21.08;;;;;;;0.06;100.00;94143.13;1039844;28;20028;-73
2020/12/12 00:41:27;;;;;;;40.53;21.40;;;;;;;0.05;100.00;94138.88;1044151;28;20010;-73
2020/12/12 00:41:57;;;;;;;39.08;20.50;;;;;;;-0.01;100.00;94136.91;1031813;28;20491;-74
2020/12/12 00:42:28;;;;;;;39.05;20.92;;;;;;;-0.03;100.00;94144.88;1039985;28;20022;-73
2020/12/12 00:42:59;;;;;;;42.15;22.25;;;;;;;-0.09;100.00;94131.63;1031728;28;20006;-73
2020/12/12 00:43:30;;;;;;;43.35;22.08;;;;;;;-0.06;100.00;94126.91;1031833;28;20018;-74
2020/12/12 00:44:00;;;;;;;38.17;20.98;;;;;;;-0.01;100.00;94131.69;1031688;28;20406;-74
2020/12/12 00:44:31;;;;;;;41.03;21.63;;;;;;;-0.05;100.00;94136.41;1035873;28;20389;-74
2020/12/12 00:45:02;;;;;;;40.83;19.92;;;;;;;-0.01;100.00;94137.72;1031685;28;20021;-73
2020/12/12 00:45:33;;;;;;;45.58;21.98;;;;;;;-0.02;100.00;94137.84;1031763;28;20053;-73
2020/12/12 00:46:03;;;;;;;40.53;21.05;;;;;;;-0.08;100.00;94122.84;1035831;28;20016;-74
2020/12/12 00:46:34;;;;;;;41.20;21.67;;;;;;;0.02;100.00;94138.38;1035808;28;20033;-73
2020/12/12 00:47:05;;;;;;;40.67;21.00;;;;;;;0.04;100.00;94129.41;1048026;28;20017;-73
2020/12/12 00:47:37;;;;;;;41.20;21.60;;;;;;;0.03;100.00;94134.78;1048178;28;20465;-74
2020/12/12 00:48:08;;;;;;;43.25;21.92;;;;;;;-0.03;100.00;94133.63;1035882;28;20116;-73
2020/12/12 00:48:39;;;;;;;41.95;22.15;;;;;;;0.04;100.00;94134.63;1031796;28;20022;-74
2020/12/12 00:49:10;;;;;;;41.33;21.65;;;;;;;0.08;100.00;94130.72;1039992;28;20029;-73
2020/12/12 00:49:41;;;;;;;42.10;21.38;;;;;;;0.08;100.00;94135.94;1036032;28;20461;-73
2020/12/12 00:50:11;;;;;;;38.70;20.23;;;;;;;0.08;100.00;94135.94;1035898;28;20053;-74
2020/12/12 00:50:45;;;;;;;40.72;21.13;;;;;;;0.05;100.00;94131.03;1039961;28;20053;-73
2020/12/12 00:51:15;;;;;;;41.25;21.52;;;;;;;0.10;100.00;94131.38;1035756;28;20549;-74
2020/12/12 00:51:46;;;;;;;40.45;21.05;;;;;;;0.01;100.00;94115.88;1031709;28;20037;-73
2020/12/12 00:52:17;;;;;;;42.47;21.35;;;;;;;0.07;100.00;94134.34;1039875;28;20547;-74
2020/12/12 00:52:48;;;;;;;42.10;20.70;;;;;;;0.11;100.00;94135.66;1039747;28;20018;-73
2020/12/12 00:53:18;;;;;;;39.47;20.92;;;;;;;0.07;100.00;94136.94;1035731;28;20028;-73
2020/12/12 00:53:49;;;;;;;38.92;21.20;;;;;;;0.03;100.00;94137.41;1039934;28;20022;-74
2020/12/12 00:54:19;;;;;;;40.25;21.10;;;;;;;0.09;100.00;94137.59;1040058;28;20014;-74
2020/12/12 00:54:50;;;;;;;37.00;20.42;;;;;;;0.13;100.00;94138.91;1031612;28;20042;-73
2020/12/12 00:55:21;;;;;;;44.60;23.23;;;;;;;0.14;100.00;94143.16;1035800;28;20022;-73
2020/12/12 00:55:53;;;;;;;40.10;21.35;;;;;;;0.21;100.00;94139.91;1035909;28;20056;-73
2020/12/12 00:56:24;;;;;;;37.20;20.20;;;;;;;0.21;100.00;94139.91;1044024;28;20027;-74
2020/12/12 00:56:55;;;;;;;41.15;21.75;;;;;;;0.15;100.00;94136.94;1043913;28;20016;-73
2020/12/12 00:57:25;;;;;;;36.33;20.98;;;;;;;0.12;100.00;94137.28;1039805;28;20425;-73
2020/12/12 00:57:56;;;;;;;38.17;20.75;;;;;;;0.13;100.00;94138.09;1031782;28;20046;-74
2020/12/12 00:58:27;;;;;;;40.25;20.98;;;;;;;0.11;100.00;94132.22;1035840;28;20021;-74
2020/12/12 00:58:58;;;;;;;42.35;22.25;;;;;;;0.06;100.00;94131.88;1035637;28;20029;-73
2020/12/12 00:59:28;;;;;;;40.78;21.95;;;;;;;0.05;100.00;94131.03;1035767;28;20014;-74
2020/12/12 00:59:59;;;;;;;38.80;21.33;;;;;;;0.03;100.00;94122.56;1035875;28;20076;-74
2020/12/12 01:00:33;;;;;;;40.38;20.85;;;;;;;0.11;100.00;94134.84;1035726;28;20136;-73
2020/12/12 01:01:03;;;;;;;35.15;19.45;;;;;;;0.04;100.00;94134.63;1035667;28;20017;-74
2020/12/12 01:01:34;;;;;;;40.28;20.08;;;;;;;0.03;100.00;94133.00;1039918;28;20414;-74
2020/12/12 01:02:05;;;;;;;40.67;20.98;;;;;;;0.05;100.00;94136.25;1035804;28;20026;-74
2020/12/12 01:02:37;;;;;;;41.05;21.25;;;;;;;0.02;100.00;94139.19;1040010;28;20017;-74
2020/12/12 01:03:08;;;;;;;35.97;19.77;;;;;;;-0.02;100.00;94127.41;1035750;28;20018;-73
2020/12/12 01:03:40;;;;;;;39.67;21.73;;;;;;;-0.07;100.00;94124.47;1035849;28;20042;-74
2020/12/12 01:04:11;;;;;;;42.30;22.67;;;;;;;0.08;100.00;94143.78;1035836;28;20022;-74
2020/12/12 01:04:42;;;;;;;39.45;20.83;;;;;;;0.06;100.00;94132.69;1039876;28;20064;-74
2020/12/12 01:05:12;;;;;;;40.78;21.80;;;;;;;0.12;100.00;94134.69;1043885;28;20116;-73
2020/12/12 01:05:43;;;;;;;41.03;21.95;;;;;;;0.02;100.00;94130.53;1035836;28;20453;-74
2020/12/12 01:06:16;;;;;;;39.75;21.27;;;;;;;-0.08;100.00;94134.09;1039920;28;20018;-74
2020/12/12 01:06:46;;;;;;;40.92;21.63;;;;;;;-0.03;100.00;94134.44;1031718;28;20020;-73
2020/12/12 01:07:17;;;;;;;44.70;21.45;;;;;;;-0.04;100.00;94126.78;1031821;28;20022;-73
2020/12/12 01:07:48;;;;;;;39.25;20.52;;;;;;;-0.03;100.00;94138.84;1039894;28;20025;-74
2020/12/12 01:08:18;;;;;;;42.15;22.00;;;;;;;-0.27;100.00;94101.22;1039889;28;20022;-74
2020/12/12 01:08:49;;;;;;;43.03;21.15;;;;;;;-0.19;100.00;94126.56;1039935;28;20430;-73
2020/12/12 01:09:20;;;;;;;39.33;19.95;;;;;;;-0.08;100.00;94130.69;1035889;28;20550;-73
2020/12/12 01:09:51;;;;;;;42.25;21.33;;;;;;;-0.16;100.00;94134.03;1035819;28;20080;-74
2020/12/12 01:10:22;;;;;;;41.40;21.38;;;;;;;-0.24;100.00;94116.56;1031637;28;20030;-73
2020/12/12 01:10:52;;;;;;;42.40;21.00;;;;;;;-0.19;100.00;94129.16;1047999;28;20021;-73
2020/12/12 01:11:23;;;;;;;42.33;22.38;;;;;;;-0.19;100.00;94129.16;1035779;28;20470;-73
2020/12/12 01:11:55;;;;;;;42.65;22.10;;;;;;;-0.23;100.00;94120.84;1035864;28;20021;-73
2020/12/12 01:12:26;;;;;;;42.92;21.92;;;;;;;-0.23;100.00;94120.00;1035845;28;20116;-74
2020/12/12 01:12:56;;;;;;;41.42;21.83;;;;;;;-0.18;100.00;94120.34;1039717;28;20110;-73
2020/12/12 01:13:27;;;;;;;40.65;20.67;;;;;;;-0.22;100.00;94129.47;1035787;28;20034;-73
2020/12/12 01:13:58;;;;;;;42.53;22.63;;;;;;;-0.21;100.00;94120.66;1035801;28;20030;-74
2020/12/12 01:14:28;;;;;;;42.65;21.35;;;;;;;-0.23;100.00;94118.22;1031722;28;20092;-73
2020/12/12 01:14:59;;;;;;;44.38;22.77;;;;;;;-0.23;100.00;94122.59;1039714;28;20030;-73
2020/12/12 01:15:31;;;;;;;39.45;21.83;;;;;;;-0.26;100.00;94121.13;1035763;28;20040;-74
2020/12/12 01:16:05;;;;;;;43.05;22.00;;;;;;;-0.30;100.00;94127.63;1039977;28;20021;-74
2020/12/12 01:16:37;;;;;;;48.17;22.70;;;;;;;-0.31;100.00;94130.41;1044050;28;20021;-74
2020/12/12 01:17:07;;;;;;;45.50;23.48;;;;;;;-0.32;100.00;94123.53;1043879;28;20032;-73
2020/12/12 01:17:38;;;;;;;44.58;22.15;;;;;;;-0.29;100.00;94118.03;1035778;28;20394;-73
2020/12/12 01:18:09;;;;;;;43.47;22.52;;;;;;;-0.34;100.00;94121.09;1031909;28;20440;-74
2020/12/12 01:18:40;;;;;;;43.58;22.00;;;;;;;-0.27;100.00;94116.88;1031685;28;20026;-73
2020/12/12 01:19:10;;;;;;;43.83;22.38;;;;;;;-0.29;100.00;94129.25;1039895;28;20029;-73
2020/12/12 01:19:41;;;;;;;44.85;22.45;;;;;;;-0.29;100.00;94124.03;1039925;28;20516;-74
2020/12/12 01:20:13;;;;;;;46.50;22.92;;;;;;;-0.53;100.00;94092.63;1039897;28;20108;-74
2020/12/12 01:20:44;;;;;;;42.25;21.95;;;;;;;-0.42;100.00;94118.41;1035711;28;20024;-73
2020/12/12 01:21:16;;;;;;;48.97;23.65;;;;;;;-0.40;100.00;94130.34;1043881;28;20052;-73
2020/12/12 01:21:47;;;;;;;43.50;22.00;;;;;;;-0.36;100.00;94117.81;1043881;28;20488;-74
2020/12/12 01:22:18;;;;;;;44.10;22.52;;;;;;;-0.35;100.00;94116.81;1040016;28;20087;-74
2020/12/12 01:22:49;;;;;;;42.50;22.45;;;;;;;-0.36;100.00;94117.00;1048137;28;20016;-74
2020/12/12 01:23:19;;;;;;;42.45;22.02;;;;;;;-0.35;100.00;94129.88;1043987;28;20060;-73
2020/12/12 01:23:50;;;;;;;44.75;22.83;;;;;;;-0.33;100.00;94122.72;1035663;28;20057;-74
2020/12/12 01:24:21;;;;;;;42.97;22.75;;;;;;;-0.35;100.00;94114.22;1043934;28;20091;-73
2020/12/12 01:24:52;;;;;;;48.13;23.02;;;;;;;-0.34;100.00;94125.50;1044122;28;20021;-74
2020/12/12 01:25:23;;;;;;;46.33;22.73;;;;;;;-0.32;100.00;94121.75;1038767;28;20049;-73
2020/12/12 01:25:54;;;;;;;45.25;22.00;;;;;;;-0.32;100.00;94113.91;1039018;28;20030;-73
2020/12/12 01:26:25;;;;;;;47.03;22.85;;;;;;;-0.35;100.00;94121.25;1039027;28;20014;-73
2020/12/12 01:26:56;;;;;;;50.85;23.85;;;;;;;-0.36;100.00;94119.63;1042782;28;20025;-73
2020/12/12 01:27:27;;;;;;;46.15;23.42;;;;;;;-0.32;100.00;94113.09;1035080;28;20018;-74
2020/12/12 01:27:58;;;;;;;47.60;23.42;;;;;;;-0.27;100.00;94121.28;1038933;28;20091;-73
2020/12/12 01:28:28;;;;;;;49.50;24.05;;;;;;;-0.26;100.00;94121.13;1038932;28;20064;-73
2020/12/12 01:28:59;;;;;;;49.03;23.83;;;;;;;-0.27;100.00;94121.28;1034679;28;20022;-73
2020/12/12 01:29:30;;;;;;;47.38;23.20;;;;;;;-0.30;100.00;94117.19;1043328;28;20112;-74
2020/12/12 01:30:01;;;;;;;48.50;23.05;;;;;;;-0.25;100.00;94120.16;1039133;28;20402;-73
2020/12/12 01:30:32;;;;;;;44.42;22.40;;;;;;;-0.25;100.00;94112.31;1043046;28;20052;-73
2020/12/12 01:31:03;;;;;;;46.33;22.90;;;;;;;-0.23;100.00;94115.63;1047004;28;20013;-73
2020/12/12 01:31:34;;;;;;;44.20;22.33;;;;;;;-0.26;100.00;94108.09;1047368;28;20017;-74
2020/12/12 01:32:05;;;;;;;45.60;22.38;;;;;;;-0.30;100.00;94114.56;1047141;28;20017;-73
2020/12/12 01:32:35;;;;;;;46.38;22.45;;;;;;;-0.25;100.00;94120.16;1043022;28;20018;-73
2020/12/12 01:33:06;;;;;;;41.35;21.23;;;;;;;-0.27;100.00;94122.09;1035034;28;20511;-73
2020/12/12 01:33:37;;;;;;;44.03;22.27;;;;;;;-0.35;100.00;94103.78;1043098;28;20390;-73
2020/12/12 01:34:08;;;;;;;48.63;23.17;;;;;;;-0.28;100.00;94125.69;1038901;28;20022;-73
2020/12/12 01:34:39;;;;;;;47.53;22.70;;;;;;;-0.34;100.00;94100.22;1039007;28;20053;-73
2020/12/12 01:35:09;;;;;;;44.28;22.20;;;;;;;-0.22;100.00;94117.22;1034621;28;20027;-73
2020/12/12 01:35:40;;;;;;;41.58;21.77;;;;;;;-0.24;100.00;94127.00;1034044;28;20030;-74
2020/12/12 01:36:11;;;;;;;46.45;22.80;;;;;;;-0.20;100.00;94117.09;1037460;28;20076;-74
2020/12/12 01:36:42;;;;;;;47.10;23.30;;;;;;;-0.19;100.00;94113.50;1040837;28;20025;-73
2020/12/12 01:37:13;;;;;;;44.10;21.88;;;;;;;-0.20;100.00;94122.28;1036552;28;20026;-73
2020/12/12 01:37:43;;;;;;;47.58;23.70;;;;;;;-0.22;100.00;94119.03;1040806;28;20018;-74
2020/12/12 01:38:14;;;;;;;45.05;21.33;;;;;;;-0.27;100.00;94108.25;1040643;28;20068;-73
2020/12/12 01:38:46;;;;;;;45.75;22.80;;;;;;;-0.18;100.00;94115.13;1032497;28;20026;-73
2020/12/12 01:39:16;;;;;;;45.17;23.35;;;;;;;-0.16;100.00;94117.59;1032381;28;20133;-73
2020/12/12 01:39:47;;;;;;;44.40;22.52;;;;;;;-0.12;100.00;94118.91;1032412;28;20026;-73
2020/12/12 01:40:18;;;;;;;47.22;22.90;;;;;;;-0.16;100.00;94117.59;1040714;28;20026;-74
2020/12/12 01:40:54;;;;;;;44.65;21.90;;;;;;;-0.12;100.00;94126.72;1040365;28;20033;-73
2020/12/12 01:41:25;;;;;;;47.00;22.52;;;;;;;-0.11;100.00;94125.75;1036519;28;20017;-73
2020/12/12 01:41:56;;;;;;;44.55;22.83;;;;;;;-0.07;100.00;94121.84;1036552;28;20035;-73
2020/12/12 01:42:26;;;;;;;48.17;22.58;;;;;;;-0.14;100.00;94121.69;1036593;28;20427;-73
2020/12/12 01:42:57;;;;;;;45.85;22.88;;;;;;;-0.18;100.00;94120.34;1036384;28;20033;-73
2020/12/12 01:43:31;;;;;;;45.90;23.80;;;;;;;-0.24;100.00;94116.56;1036538;28;20100;-73
2020/12/12 01:44:02;;;;;;;41.75;21.77;;;;;;;-0.25;100.00;94120.16;1040412;28;20017;-74
2020/12/12 01:44:33;;;;;;;42.65;22.20;;;;;;;-0.28;100.00;94123.09;1044714;28;20024;-74
2020/12/12 01:45:05;;;;;;;50.25;24.60;;;;;;;-0.26;100.00;94118.53;1044680;28;20104;-73
2020/12/12 01:45:37;;;;;;;42.88;21.20;;;;;;;-0.32;100.00;94106.09;1040665;28;20123;-73
2020/12/12 01:46:08;;;;;;;45.03;22.80;;;;;;;-0.26;100.00;94112.47;1040604;28;20022;-73
2020/12/12 01:46:38;;;;;;;48.35;23.73;;;;;;;-0.31;100.00;94110.34;1032350;28;20122;-74
2020/12/12 01:47:09;;;;;;;46.13;22.13;;;;;;;-0.27;100.00;94110.84;1036363;28;20438;-74
2020/12/12 01:47:40;;;;;;;45.13;22.65;;;;;;;-0.24;100.00;94105.34;1040596;28;20441;-73
2020/12/12 01:48:11;;;;;;;45.95;22.88;;;;;;;-0.25;100.00;94109.72;1044624;28;20017;-73
2020/12/12 01:48:42;;;;;;;45.28;22.75;;;;;;;-0.28;100.00;94112.66;1036534;28;20014;-74
2020/12/12 01:49:13;;;;;;;48.90;24.25;;;;;;;-0.27;100.00;94103.84;1044474;28;20413;-73
2020/12/12 01:49:44;;;;;;;41.30;22.20;;;;;;;-0.24;100.00;94111.34;1036526;28;20029;-73
2020/12/12 01:50:15;;;;;;;51.33;23.50;;;;;;;-0.23;100.00;94101.72;1044705;28;20021;-73
2020/12/12 01:50:46;;;;;;;47.10;22.98;;;;;;;-0.21;100.00;94102.41;1044560;28;20017;-73
2020/12/12 01:51:18;;;;;;;46.70;22.98;;;;;;;-0.27;100.00;94097.81;1040488;28;20022;-73
2020/12/12 01:51:49;;;;;;;43.65;22.73;;;;;;;-0.23;100.00;94109.56;1040543;28;20109;-74
2020/12/12 01:52:21;;;;;;;47.95;21.70;;;;;;;-0.25;100.00;94099.28;1044676;28;20023;-73
2020/12/12 01:52:52;;;;;;;48.88;23.00;;;;;;;-0.21;100.00;94107.59;1036403;28;20439;-73
2020/12/12 01:53:26;;;;;;;41.47;22.52;;;;;;;-0.22;100.00;94106.81;1036519;28;20018;-73
2020/12/12 01:53:58;;;;;;;45.22;22.10;;;;;;;-0.22;100.00;94106.00;1036257;28;20105;-74
2020/12/12 01:54:29;;;;;;;45.50;22.77;;;;;;;-0.23;100.00;94102.56;1040574;28;20629;-74
2020/12/12 01:55:00;;;;;;;48.03;22.98;;;;;;;-0.25;100.00;94107.09;1036519;28;20018;-73
2020/12/12 01:55:31;;;;;;;45.28;23.25;;;;;;;-0.27;100.00;94111.66;1036528;28;20017;-74
2020/12/12 01:56:02;;;;;;;44.45;22.45;;;;;;;-0.29;100.00;94103.19;1036423;28;20021;-74
2020/12/12 01:56:33;;;;;;;43.35;22.65;;;;;;;-0.29;100.00;94095.34;1040527;28;20024;-74
2020/12/12 01:57:04;;;;;;;48.72;23.58;;;;;;;-0.25;100.00;94114.94;1040485;28;20024;-73
2020/12/12 01:57:35;;;;;;;45.03;23.58;;;;;;;-0.23;100.00;94123.44;1036413;28;20022;-74
2020/12/12 01:58:06;;;;;;;43.08;21.92;;;;;;;-0.25;100.00;94120.16;1040548;28;20013;-74
2020/12/12 01:58:37;;;;;;;42.10;21.90;;;;;;;-0.22;100.00;94119.84;1040613;28;20021;-74
2020/12/12 01:59:08;;;;;;;45.95;23.40;;;;;;;-0.35;100.00;94103.78;1036424;28;20022;-73
2020/12/12 01:59:39;;;;;;;44.88;22.77;;;;;;;-0.25;100.00;94122.75;1036472;28;20498;-74
2020/12/12 02:00:09;;;;;;;45.85;22.35;;;;;;;-0.26;100.00;94122.91;1044549;28;20020;-74
2020/12/12 02:00:40;;;;;;;48.08;22.52;;;;;;;-0.26;100.00;94128.13;1040531;28;20030;-74
2020/12/12 02:01:12;;;;;;;47.90;22.95;;;;;;;-0.23;100.00;94120.84;1044493;28;20790;-74
2020/12/12 02:01:45;;;;;;;49.17;25.15;;;;;;;-0.23;100.00;94127.81;1044598;28;20013;-74
2020/12/12 02:02:18;;;;;;;47.25;23.58;;;;;;;-0.27;100.00;94126.50;1040699;28;20014;-74
2020/12/12 02:02:50;;;;;;;46.80;22.65;;;;;;;-0.22;100.00;94130.28;1036541;28;20020;-73
2020/12/12 02:03:21;;;;;;;47.75;23.05;;;;;;;-0.20;100.00;94127.50;1036316;28;20061;-74
2020/12/12 02:03:52;;;;;;;44.80;22.55;;;;;;;-0.33;100.00;94099.25;1036349;28;20042;-74
2020/12/12 02:04:24;;;;;;;45.72;22.17;;;;;;;-0.22;100.00;94135.50;1036346;28;20021;-74
2020/12/12 02:04:55;;;;;;;50.70;21.50;;;;;;;-0.22;100.00;94122.44;1040466;28;20136;-73
2020/12/12 02:06:15;;;;;;;46.05;21.38;;;;;;;-0.23;100.00;94133.88;1048774;28;20020;-73
2020/12/12 02:06:46;;;;;;;45.00;22.08;;;;;;;-0.29;100.00;94131.06;1036374;28;20013;-73
2020/12/12 02:07:17;;;;;;;44.22;21.83;;;;;;;-0.29;100.00;94124.03;1040556;28;20049;-73
2020/12/12 02:07:48;;;;;;;48.22;22.17;;;;;;;-0.30;100.00;94125.00;1044549;28;20048;-74
2020/12/12 02:08:19;;;;;;;42.60;21.17;;;;;;;-0.32;100.00;94121.75;1036423;28;20104;-74
2020/12/12 02:08:51;;;;;;;43.60;21.70;;;;;;;-0.31;100.00;94127.78;1040347;28;20516;-73
2020/12/12 02:09:22;;;;;;;45.88;23.67;;;;;;;-0.31;100.00;94123.38;1032474;28;20486;-74
2020/12/12 02:09:53;;;;;;;47.65;22.90;;;;;;;-0.31;100.00;94126.00;1036569;28;20553;-74
2020/12/12 02:10:24;;;;;;;45.50;22.05;;;;;;;-0.34;100.00;94120.28;1036482;28;20018;-74
2020/12/12 02:10:55;;;;;;;42.97;21.70;;;;;;;-0.42;100.00;94111.44;1036252;28;20014;-73
2020/12/12 02:11:25;;;;;;;46.10;21.90;;;;;;;-0.29;100.00;94123.25;1032008;28;20025;-73
2020/12/12 02:11:58;;;;;;;51.03;24.42;;;;;;;-0.31;100.00;94115.56;1036287;28;20021;-73
2020/12/12 02:12:28;;;;;;;42.58;23.23;;;;;;;-0.27;100.00;94116.06;1036477;28;20364;-74
2020/12/12 02:12:59;;;;;;;47.58;23.38;;;;;;;-0.24;100.00;94118.38;1032238;28;20166;-73
2020/12/12 02:13:30;;;;;;;50.15;23.08;;;;;;;-0.27;100.00;94113.47;1040429;28;20060;-74
2020/12/12 02:14:02;;;;;;;44.22;21.60;;;;;;;-0.30;100.00;94111.16;1040497;28;20029;-74
2020/12/12 02:14:37;;;;;;;48.60;23.70;;;;;;;-0.18;100.00;94122.16;1036407;28;20014;-74
2020/12/12 02:15:08;;;;;;;44.72;22.58;;;;;;;-0.22;100.00;94116.41;1036250;28;20447;-73
2020/12/12 02:15:39;;;;;;;48.58;24.13;;;;;;;-0.27;100.00;94106.44;1036462;28;20385;-74
2020/12/12 02:16:10;;;;;;;46.20;23.65;;;;;;;-0.15;100.00;94124.44;1036494;28;20113;-73
2020/12/12 02:16:51;;;;;;;41.20;21.77;;;;;;;-0.16;100.00;94120.19;1040404;28;20021;-73
2020/12/12 02:17:22;;;;;;;44.55;20.92;;;;;;;-0.17;100.00;94111.56;1040586;28;20389;-73
2020/12/12 02:17:53;;;;;;;49.13;23.08;;;;;;;-0.14;100.00;94113.88;1036445;28;20026;-74
2020/12/12 02:18:24;;;;;;;44.92;22.92;;;;;;;-0.17;100.00;94119.38;1032240;28;20023;-73
2020/12/12 02:18:55;;;;;;;44.83;22.00;;;;;;;-0.15;100.00;94114.00;1044488;28;20075;-73
2020/12/12 02:19:25;;;;;;;45.88;22.65;;;;;;;-0.15;100.00;94114.00;1040623;28;20013;-73
2020/12/12 02:19:56;;;;;;;47.53;22.77;;;;;;;-0.15;100.00;94108.81;1036320;28;20037;-74
2020/12/12 02:20:27;;;;;;;47.50;24.27;;;;;;;-0.13;100.00;94114.66;1040480;28;20366;-73
2020/12/12 02:21:00;;;;;;;41.75;22.45;;;;;;;-0.16;100.00;94105.34;1036162;28;20486;-73
2020/12/12 02:21:30;;;;;;;46.42;22.50;;;;;;;-0.06;100.00;94118.28;1040366;28;20052;-73
2020/12/12 02:22:03;;;;;;;46.53;23.48;;;;;;;-0.01;100.00;94113.41;1032297;28;20032;-74
2020/12/12 02:22:34;;;;;;;45.00;23.27;;;;;;;0.00;100.00;94109.84;1036366;28;20010;-74
2020/12/12 02:23:05;;;;;;;44.22;22.98;;;;;;;-0.08;100.00;94110.63;1032137;28;20022;-73